createdAt,value
2018-12-21T00:01:03.668Z,0
2018-12-21T00:02:11.371Z,0
2018-12-21T00:03:18.927Z,0
2018-12-21T00:04:25.023Z,0
2018-12-21T00:05:38.695Z,0
2018-12-21T00:06:52.540Z,0
2018-12-21T00:08:07.777Z,0
2018-12-21T00:09:15.572Z,0
2018-12-21T00:10:21.651Z,0
2018-12-21T00:11:31.850Z,0
2018-12-21T00:12:49.262Z,0
2018-12-21T00:14:00.136Z,0
2018-12-21T00:15:10.512Z,0
2018-12-21T00:16:29.941Z,0
2018-12-21T00:17:40.836Z,0
2018-12-21T00:18:56.299Z,0
2018-12-21T00:20:09.766Z,0
2018-12-21T00:21:21.793Z,0
2018-12-21T00:22:34.662Z,0
2018-12-21T00:24:00.035Z,0
2018-12-21T00:25:07.933Z,0
2018-12-21T00:26:21.293Z,0
2018-12-21T00:27:28.843Z,0
2018-12-21T00:28:45.904Z,0
2018-12-21T00:29:54.073Z,0
2018-12-21T00:31:10.200Z,0
2018-12-21T00:32:19.965Z,0
2018-12-21T00:33:40.164Z,0
2018-12-21T00:34:49.454Z,0
2018-12-21T00:36:04.303Z,0
2018-12-21T00:37:15.006Z,0
2018-12-21T00:38:30.088Z,0
2018-12-21T00:40:07.616Z,0
2018-12-21T00:41:40.609Z,0
2018-12-21T00:42:49.124Z,0
2018-12-21T00:44:55.234Z,0
2018-12-21T00:46:31.018Z,0
2018-12-21T00:47:49.942Z,0
2018-12-21T00:49:12.757Z,0
2018-12-21T00:50:38.946Z,0
2018-12-21T00:51:55.929Z,0
2018-12-21T00:53:21.283Z,0
2018-12-21T00:55:02.126Z,0
2018-12-21T00:56:03.488Z,0
2018-12-21T00:57:04.849Z,0
2018-12-21T00:58:06.214Z,0
2018-12-21T00:59:07.578Z,0
2018-12-21T01:00:08.955Z,0
2018-12-21T01:01:10.360Z,0
2018-12-21T01:02:11.755Z,0
2018-12-21T01:03:13.141Z,0
2018-12-21T01:04:14.539Z,0
2018-12-21T01:05:15.931Z,0
2018-12-21T01:06:17.351Z,0
2018-12-21T01:07:18.769Z,0
2018-12-21T01:08:20.181Z,0
2018-12-21T01:09:21.626Z,0
2018-12-21T01:10:23.271Z,0
2018-12-21T01:11:25.071Z,0
2018-12-21T01:12:26.501Z,0
2018-12-21T01:13:27.966Z,0
2018-12-21T01:14:29.378Z,0
2018-12-21T01:15:30.809Z,0
2018-12-21T01:16:32.256Z,0
2018-12-21T01:17:33.719Z,0
2018-12-21T01:18:35.162Z,0
2018-12-21T01:19:36.647Z,0
2018-12-21T01:20:38.151Z,0
2018-12-21T01:21:39.574Z,0
2018-12-21T01:22:41.336Z,0
2018-12-21T01:23:43.308Z,0
2018-12-21T01:24:45.338Z,0
2018-12-21T01:25:47.380Z,0
2018-12-21T01:26:49.303Z,0
2018-12-21T01:27:51.321Z,0
2018-12-21T01:28:53.293Z,0
2018-12-21T01:29:55.377Z,0
2018-12-21T01:30:57.434Z,0
2018-12-21T01:31:59.495Z,0
2018-12-21T01:33:01.568Z,0
2018-12-21T01:34:03.647Z,0
2018-12-21T01:35:05.577Z,0
2018-12-21T01:36:07.702Z,0
2018-12-21T01:37:09.701Z,0
2018-12-21T01:38:11.847Z,0
2018-12-21T01:39:13.945Z,0
2018-12-21T01:40:15.955Z,0
2018-12-21T01:41:18.162Z,0
2018-12-21T01:42:20.266Z,0
2018-12-21T01:43:22.359Z,0
2018-12-21T01:44:24.411Z,0
2018-12-21T01:45:26.506Z,0
2018-12-21T01:46:28.648Z,0
2018-12-21T01:47:30.581Z,0
2018-12-21T01:48:32.587Z,0
2018-12-21T01:49:34.737Z,0
2018-12-21T01:50:36.958Z,0
2018-12-21T01:51:46.813Z,0
2018-12-21T01:52:41.046Z,0
2018-12-21T01:53:43.169Z,0
2018-12-21T01:54:45.255Z,0
2018-12-21T01:55:47.328Z,0
2018-12-21T01:56:49.452Z,0
2018-12-21T01:57:51.534Z,0
2018-12-21T01:58:53.684Z,0
2018-12-21T01:59:55.834Z,0
2018-12-21T02:00:57.994Z,0
2018-12-21T02:02:00.122Z,0
2018-12-21T02:03:02.260Z,0
2018-12-21T02:04:04.384Z,0
2018-12-21T02:05:06.516Z,0
2018-12-21T02:06:08.577Z,0
2018-12-21T02:07:10.654Z,0
2018-12-21T02:08:12.761Z,0
2018-12-21T02:09:14.877Z,0
2018-12-21T02:10:16.902Z,0
2018-12-21T02:11:18.929Z,0
2018-12-21T02:12:20.971Z,0
2018-12-21T02:13:22.926Z,0
2018-12-21T02:14:25.088Z,0
2018-12-21T02:15:27.205Z,0
2018-12-21T02:16:29.252Z,0
2018-12-21T02:17:31.281Z,0
2018-12-21T02:18:33.409Z,0
2018-12-21T02:19:35.576Z,0
2018-12-21T02:20:37.647Z,0
2018-12-21T02:21:39.810Z,0
2018-12-21T02:22:41.950Z,0
2018-12-21T02:23:44.042Z,0
2018-12-21T02:24:46.140Z,0
2018-12-21T02:25:48.276Z,0
2018-12-21T02:26:50.368Z,0
2018-12-21T02:27:52.357Z,0
2018-12-21T02:28:54.469Z,0
2018-12-21T02:29:56.554Z,0
2018-12-21T02:30:58.673Z,0
2018-12-21T02:32:00.764Z,0
2018-12-21T02:33:02.811Z,0
2018-12-21T02:34:04.923Z,0
2018-12-21T02:35:06.928Z,0
2018-12-21T02:36:09.039Z,0
2018-12-21T02:37:11.042Z,0
2018-12-21T02:38:13.121Z,0
2018-12-21T02:39:15.151Z,0
2018-12-21T02:40:17.136Z,0
2018-12-21T02:41:19.421Z,0
2018-12-21T02:42:21.442Z,0
2018-12-21T02:43:23.715Z,0
2018-12-21T02:44:25.794Z,0
2018-12-21T02:45:27.901Z,0
2018-12-21T02:46:30.064Z,0
2018-12-21T02:47:32.172Z,0
2018-12-21T02:48:34.381Z,0
2018-12-21T02:49:36.492Z,0
2018-12-21T02:50:38.613Z,0
2018-12-21T02:51:40.707Z,0
2018-12-21T02:52:42.753Z,0
2018-12-21T02:53:44.834Z,0
2018-12-21T02:54:47.001Z,0
2018-12-21T02:55:49.227Z,0
2018-12-21T02:56:51.412Z,0
2018-12-21T02:57:53.576Z,0
2018-12-21T02:58:55.678Z,0
2018-12-21T02:59:57.915Z,0
2018-12-21T03:00:59.971Z,0
2018-12-21T03:02:01.944Z,0
2018-12-21T03:03:04.076Z,0
2018-12-21T03:04:06.167Z,0
2018-12-21T03:05:08.362Z,0
2018-12-21T03:06:10.391Z,0
2018-12-21T03:07:12.595Z,0
2018-12-21T03:08:14.584Z,0
2018-12-21T03:09:16.652Z,0
2018-12-21T03:10:18.962Z,0
2018-12-21T03:11:21.063Z,0
2018-12-21T03:12:23.236Z,0
2018-12-21T03:13:25.521Z,0
2018-12-21T03:14:28.073Z,0
2018-12-21T03:15:30.303Z,0
2018-12-21T03:16:32.655Z,0
2018-12-21T03:17:34.803Z,0
2018-12-21T03:18:36.935Z,0
2018-12-21T03:19:39.107Z,0
2018-12-21T03:20:41.203Z,0
2018-12-21T03:21:43.415Z,0
2018-12-21T03:22:45.562Z,0
2018-12-21T03:23:47.693Z,0
2018-12-21T03:24:49.769Z,0
2018-12-21T03:25:51.898Z,0
2018-12-21T03:26:54.655Z,0
2018-12-21T03:27:57.009Z,0
2018-12-21T03:28:59.045Z,0
2018-12-21T03:30:01.173Z,0
2018-12-21T03:31:03.332Z,0
2018-12-21T03:32:05.477Z,0
2018-12-21T03:33:07.511Z,0
2018-12-21T03:34:09.539Z,0
2018-12-21T03:35:11.651Z,0
2018-12-21T03:36:13.757Z,0
2018-12-21T03:37:15.859Z,0
2018-12-21T03:38:18.029Z,0
2018-12-21T03:39:20.275Z,0
2018-12-21T03:40:22.333Z,0
2018-12-21T03:41:24.616Z,0
2018-12-21T03:42:26.781Z,0
2018-12-21T03:43:29.046Z,0
2018-12-21T03:44:31.137Z,0
2018-12-21T03:45:33.358Z,0
2018-12-21T03:46:35.870Z,0
2018-12-21T03:47:38.036Z,0
2018-12-21T03:48:39.976Z,0
2018-12-21T03:49:42.221Z,0
2018-12-21T03:50:44.405Z,0
2018-12-21T03:51:46.765Z,0
2018-12-21T03:52:49.056Z,0
2018-12-21T03:53:51.352Z,0
2018-12-21T03:54:53.668Z,0
2018-12-21T03:55:56.010Z,0
2018-12-21T03:56:58.237Z,0
2018-12-21T03:58:00.463Z,0
2018-12-21T03:59:03.038Z,0
2018-12-21T04:00:05.651Z,0
2018-12-21T04:01:07.987Z,0
2018-12-21T04:02:10.385Z,0
2018-12-21T04:03:12.656Z,0
2018-12-21T04:04:14.783Z,0
2018-12-21T04:05:18.043Z,0
2018-12-21T04:06:20.516Z,0
2018-12-21T04:07:22.980Z,0
2018-12-21T04:08:25.235Z,0
2018-12-21T04:09:27.963Z,0
2018-12-21T04:10:30.484Z,0
2018-12-21T04:11:32.705Z,0
2018-12-21T04:12:35.404Z,0
2018-12-21T04:13:37.772Z,0
2018-12-21T04:14:39.998Z,0
2018-12-21T04:15:42.286Z,0
2018-12-21T04:16:44.494Z,0
2018-12-21T04:17:46.476Z,0
2018-12-21T04:18:49.251Z,0
2018-12-21T04:19:51.533Z,0
2018-12-21T04:20:53.925Z,0
2018-12-21T04:21:56.075Z,0
2018-12-21T04:22:58.421Z,0
2018-12-21T04:24:00.739Z,0
2018-12-21T04:25:03.018Z,0
2018-12-21T04:26:05.170Z,0
2018-12-21T04:27:07.771Z,0
2018-12-21T04:28:09.748Z,0
2018-12-21T04:29:12.183Z,0
2018-12-21T04:30:14.678Z,0
2018-12-21T04:31:16.842Z,0
2018-12-21T04:32:19.052Z,0
2018-12-21T04:33:21.345Z,0
2018-12-21T04:34:24.528Z,0
2018-12-21T04:35:26.977Z,0
2018-12-21T04:36:29.449Z,0
2018-12-21T04:37:31.986Z,0
2018-12-21T04:38:34.375Z,0
2018-12-21T04:39:36.593Z,0
2018-12-21T04:40:39.030Z,0
2018-12-21T04:41:41.146Z,0
2018-12-21T04:42:44.131Z,0
2018-12-21T04:43:46.605Z,0
2018-12-21T04:44:48.962Z,0
2018-12-21T04:45:51.032Z,0
2018-12-21T04:46:53.184Z,0
2018-12-21T04:47:56.498Z,0
2018-12-21T04:48:58.853Z,0
2018-12-21T04:50:01.545Z,0
2018-12-21T04:51:03.826Z,0
2018-12-21T04:52:06.010Z,0
2018-12-21T04:53:08.324Z,0
2018-12-21T04:54:10.644Z,0
2018-12-21T04:55:12.844Z,0
2018-12-21T04:56:15.152Z,0
2018-12-21T04:57:17.397Z,0
2018-12-21T04:58:19.560Z,0
2018-12-21T04:59:22.546Z,0
2018-12-21T05:00:25.154Z,0
2018-12-21T05:01:27.676Z,0
2018-12-21T05:02:30.321Z,0
2018-12-21T05:03:32.525Z,0
2018-12-21T05:04:34.624Z,0
2018-12-21T05:05:39.423Z,0
2018-12-21T05:06:39.161Z,0
2018-12-21T05:07:41.287Z,0
2018-12-21T05:08:43.575Z,0
2018-12-21T05:09:45.671Z,0
2018-12-21T05:10:47.925Z,0
2018-12-21T05:11:50.075Z,0
2018-12-21T05:12:52.230Z,0
2018-12-21T05:13:54.199Z,0
2018-12-21T05:14:56.321Z,0
2018-12-21T05:15:58.502Z,0
2018-12-21T05:17:00.598Z,0
2018-12-21T05:18:02.749Z,0
2018-12-21T05:19:04.873Z,0
2018-12-21T05:20:06.973Z,0
2018-12-21T05:21:09.769Z,0
2018-12-21T05:22:11.894Z,0
2018-12-21T05:23:14.034Z,0
2018-12-21T05:24:16.160Z,0
2018-12-21T05:25:18.281Z,0
2018-12-21T05:26:20.515Z,0
2018-12-21T05:27:22.539Z,0
2018-12-21T05:28:24.677Z,0
2018-12-21T05:29:26.837Z,0
2018-12-21T05:30:28.991Z,0
2018-12-21T05:31:31.267Z,0
2018-12-21T05:32:33.814Z,0
2018-12-21T05:33:36.186Z,0
2018-12-21T05:34:38.460Z,0
2018-12-21T05:35:40.808Z,0
2018-12-21T05:36:42.976Z,0
2018-12-21T05:37:45.218Z,0
2018-12-21T05:38:47.644Z,0
2018-12-21T05:39:49.893Z,0
2018-12-21T05:40:52.057Z,0
2018-12-21T05:41:54.073Z,0
2018-12-21T05:42:55.935Z,0
2018-12-21T05:43:58.078Z,0
2018-12-21T05:45:00.017Z,0
2018-12-21T05:46:01.887Z,0
2018-12-21T05:47:03.749Z,0
2018-12-21T05:48:05.725Z,0
2018-12-21T05:49:07.825Z,0
2018-12-21T05:50:09.724Z,0
2018-12-21T05:51:11.587Z,0
2018-12-21T05:52:13.523Z,0
2018-12-21T05:53:15.324Z,0
2018-12-21T05:54:17.008Z,0
2018-12-21T05:55:18.754Z,0
2018-12-21T05:56:20.367Z,0
2018-12-21T05:57:22.063Z,0
2018-12-21T05:58:23.787Z,0
2018-12-21T05:59:25.572Z,0
2018-12-21T06:00:27.492Z,0
2018-12-21T06:01:29.223Z,0
2018-12-21T06:02:31.143Z,0
2018-12-21T06:03:32.933Z,0
2018-12-21T06:04:34.675Z,0
2018-12-21T06:05:36.416Z,0
2018-12-21T06:06:38.043Z,0
2018-12-21T06:07:39.842Z,0
2018-12-21T06:08:41.542Z,0
2018-12-21T06:09:43.189Z,0
2018-12-21T06:10:44.856Z,0
2018-12-21T06:11:46.523Z,0
2018-12-21T06:12:48.134Z,0
2018-12-21T06:13:49.831Z,0
2018-12-21T06:14:51.512Z,0
2018-12-21T06:15:53.159Z,0
2018-12-21T06:16:54.525Z,0
2018-12-21T06:17:55.903Z,0
2018-12-21T06:18:57.282Z,0
2018-12-21T06:19:58.669Z,0
2018-12-21T06:21:00.036Z,0
2018-12-21T06:22:01.425Z,0
2018-12-21T06:23:09.393Z,0
2018-12-21T06:24:04.154Z,0
2018-12-21T06:25:05.550Z,0
2018-12-21T06:26:07.022Z,0
2018-12-21T06:27:08.425Z,0
2018-12-21T06:28:09.805Z,0
2018-12-21T06:29:11.340Z,0
2018-12-21T06:30:12.850Z,0
2018-12-21T06:31:14.243Z,0
2018-12-21T06:32:15.705Z,0
2018-12-21T06:33:17.260Z,0
2018-12-21T06:34:18.759Z,0
2018-12-21T06:35:20.149Z,0
2018-12-21T06:36:21.581Z,0
2018-12-21T06:37:23.048Z,0
2018-12-21T06:38:24.437Z,0
2018-12-21T06:39:26.064Z,0
2018-12-21T06:40:27.485Z,0
2018-12-21T06:41:28.969Z,0
2018-12-21T06:42:30.363Z,0
2018-12-21T06:43:31.769Z,0
2018-12-21T06:44:33.162Z,0
2018-12-21T06:45:34.618Z,0
2018-12-21T06:46:36.129Z,0
2018-12-21T06:47:37.735Z,0
2018-12-21T06:48:39.138Z,0
2018-12-21T06:49:40.622Z,0
2018-12-21T06:50:42.009Z,0
2018-12-21T06:51:43.400Z,0
2018-12-21T06:52:44.822Z,0
2018-12-21T06:53:46.208Z,0
2018-12-21T06:54:47.588Z,0
2018-12-21T06:55:48.999Z,0
2018-12-21T06:56:50.396Z,0
2018-12-21T06:57:51.782Z,0
2018-12-21T06:58:53.174Z,0
2018-12-21T06:59:54.559Z,0
2018-12-21T07:00:55.941Z,0
2018-12-21T07:01:57.309Z,0
2018-12-21T07:02:58.687Z,0
2018-12-21T07:04:00.120Z,0
2018-12-21T07:05:01.502Z,0
2018-12-21T07:06:02.909Z,0
2018-12-21T07:07:04.300Z,0
2018-12-21T07:08:05.677Z,0
2018-12-21T07:09:07.084Z,0
2018-12-21T07:10:08.521Z,0
2018-12-21T07:11:10.820Z,0
2018-12-21T07:12:12.208Z,0
2018-12-21T07:13:13.670Z,0
2018-12-21T07:14:15.067Z,0
2018-12-21T07:15:16.588Z,0
2018-12-21T07:16:18.075Z,0
2018-12-21T07:17:19.497Z,0
2018-12-21T07:18:20.902Z,0
2018-12-21T07:19:22.463Z,0
2018-12-21T07:20:23.857Z,0
2018-12-21T07:21:25.284Z,0
2018-12-21T07:22:26.763Z,0
2018-12-21T07:23:28.185Z,0
2018-12-21T07:24:29.593Z,0
2018-12-21T07:25:31.008Z,0
2018-12-21T07:26:32.790Z,0
2018-12-21T07:27:34.534Z,0
2018-12-21T07:28:35.911Z,0
2018-12-21T07:29:37.304Z,0
2018-12-21T07:30:38.771Z,0
2018-12-21T07:31:40.821Z,0
2018-12-21T07:32:42.654Z,0
2018-12-21T07:33:44.425Z,0
2018-12-21T07:34:45.906Z,0
2018-12-21T07:35:47.303Z,0
2018-12-21T07:36:48.711Z,0
2018-12-21T07:37:50.332Z,0
2018-12-21T07:38:51.725Z,5
2018-12-21T07:39:53.116Z,5
2018-12-21T07:40:54.528Z,5
2018-12-21T07:41:56.071Z,5
2018-12-21T07:42:57.788Z,5
2018-12-21T07:43:59.279Z,5
2018-12-21T07:45:00.639Z,5
2018-12-21T07:46:02.158Z,5
2018-12-21T07:47:03.920Z,10
2018-12-21T07:48:05.316Z,10
2018-12-21T07:49:06.719Z,10
2018-12-21T07:50:08.149Z,10
2018-12-21T07:51:09.713Z,10
2018-12-21T07:52:11.149Z,10
2018-12-21T07:53:12.555Z,5
2018-12-21T07:54:14.196Z,5
2018-12-21T07:55:15.963Z,10
2018-12-21T07:56:17.440Z,10
2018-12-21T07:57:18.878Z,10
2018-12-21T07:58:20.350Z,15
2018-12-21T07:59:21.749Z,15
2018-12-21T08:00:23.182Z,15
2018-12-21T08:01:24.608Z,15
2018-12-21T08:02:26.026Z,15
2018-12-21T08:03:27.430Z,15
2018-12-21T08:04:30.303Z,15
2018-12-21T08:05:30.243Z,15
2018-12-21T08:06:31.708Z,15
2018-12-21T08:07:33.151Z,15
2018-12-21T08:08:34.766Z,15
2018-12-21T08:09:36.210Z,15
2018-12-21T08:10:37.793Z,20
2018-12-21T08:11:39.233Z,20
2018-12-21T08:12:40.653Z,20
2018-12-21T08:13:42.098Z,20
2018-12-21T08:14:43.564Z,25
2018-12-21T08:15:45.022Z,20
2018-12-21T08:16:46.462Z,15
2018-12-21T08:17:47.939Z,20
2018-12-21T08:18:49.694Z,20
2018-12-21T08:19:51.151Z,15
2018-12-21T08:20:52.615Z,20
2018-12-21T08:21:54.061Z,20
2018-12-21T08:22:55.496Z,20
2018-12-21T08:23:56.917Z,20
2018-12-21T08:24:58.343Z,20
2018-12-21T08:25:59.825Z,15
2018-12-21T08:27:01.281Z,15
2018-12-21T08:28:02.735Z,15
2018-12-21T08:29:04.374Z,15
2018-12-21T08:30:05.759Z,15
2018-12-21T08:31:07.170Z,15
2018-12-21T08:32:08.576Z,15
2018-12-21T08:33:09.987Z,20
2018-12-21T08:34:11.398Z,20
2018-12-21T08:35:12.813Z,20
2018-12-21T08:36:14.262Z,20
2018-12-21T08:37:16.085Z,20
2018-12-21T08:38:17.504Z,20
2018-12-21T08:39:19.000Z,20
2018-12-21T08:40:20.538Z,20
2018-12-21T08:41:22.347Z,20
2018-12-21T08:42:23.775Z,20
2018-12-21T08:43:25.190Z,20
2018-12-21T08:44:26.598Z,20
2018-12-21T08:45:28.180Z,20
2018-12-21T08:46:30.279Z,15
2018-12-21T08:47:32.180Z,15
2018-12-21T08:48:33.603Z,15
2018-12-21T08:49:35.063Z,20
2018-12-21T08:50:36.578Z,20
2018-12-21T08:51:38.017Z,20
2018-12-21T08:52:39.697Z,20
2018-12-21T08:53:41.150Z,20
2018-12-21T08:54:42.635Z,25
2018-12-21T08:55:44.150Z,25
2018-12-21T08:56:45.601Z,30
2018-12-21T08:57:47.091Z,30
2018-12-21T08:58:48.521Z,30
2018-12-21T08:59:49.953Z,35
2018-12-21T09:00:51.572Z,40
2018-12-21T09:01:53.024Z,40
2018-12-21T09:02:54.526Z,40
2018-12-21T09:03:56.150Z,40
2018-12-21T09:04:57.608Z,45
2018-12-21T09:05:59.070Z,45
2018-12-21T09:07:00.681Z,50
2018-12-21T09:08:02.377Z,55
2018-12-21T09:09:03.943Z,55
2018-12-21T09:10:05.671Z,55
2018-12-21T09:11:07.253Z,50
2018-12-21T09:12:08.979Z,45
2018-12-21T09:13:10.611Z,40
2018-12-21T09:14:12.586Z,40
2018-12-21T09:15:14.498Z,35
2018-12-21T09:16:15.971Z,30
2018-12-21T09:17:17.465Z,30
2018-12-21T09:18:18.938Z,30
2018-12-21T09:19:20.375Z,30
2018-12-21T09:20:22.329Z,30
2018-12-21T09:21:24.215Z,30
2018-12-21T09:22:25.893Z,30
2018-12-21T09:23:27.413Z,30
2018-12-21T09:24:29.011Z,25
2018-12-21T09:25:30.771Z,20
2018-12-21T09:26:32.521Z,20
2018-12-21T09:27:34.327Z,15
2018-12-21T09:28:35.834Z,15
2018-12-21T09:29:37.308Z,15
2018-12-21T09:30:39.291Z,25
2018-12-21T09:31:41.012Z,35
2018-12-21T09:32:42.553Z,55
2018-12-21T09:33:43.996Z,80
2018-12-21T09:34:45.484Z,90
2018-12-21T09:35:47.322Z,100
2018-12-21T09:36:48.963Z,105
2018-12-21T09:37:50.403Z,95
2018-12-21T09:38:52.613Z,100
2018-12-21T09:39:54.499Z,130
2018-12-21T09:40:56.218Z,140
2018-12-21T09:41:58.065Z,135
2018-12-21T09:42:59.813Z,150
2018-12-21T09:44:01.305Z,155
2018-12-21T09:45:03.222Z,135
2018-12-21T09:46:05.312Z,115
2018-12-21T09:47:07.275Z,125
2018-12-21T09:48:10.154Z,120
2018-12-21T09:49:13.116Z,120
2018-12-21T09:50:16.027Z,110
2018-12-21T09:51:17.918Z,105
2018-12-21T09:52:19.366Z,105
2018-12-21T09:53:21.277Z,105
2018-12-21T09:54:23.220Z,105
2018-12-21T09:55:25.169Z,100
2018-12-21T09:56:27.124Z,105
2018-12-21T09:57:28.705Z,100
2018-12-21T09:58:30.302Z,100
2018-12-21T09:59:31.781Z,105
2018-12-21T10:00:33.777Z,125
2018-12-21T10:01:35.674Z,130
2018-12-21T10:02:37.414Z,140
2018-12-21T10:03:39.105Z,150
2018-12-21T10:04:40.534Z,130
2018-12-21T10:05:42.135Z,80
2018-12-21T10:06:43.956Z,55
2018-12-21T10:07:45.989Z,45
2018-12-21T10:08:47.501Z,35
2018-12-21T10:09:48.977Z,35
2018-12-21T10:10:50.710Z,55
2018-12-21T10:11:51.866Z,95
2018-12-21T10:12:53.725Z,140
2018-12-21T10:13:55.420Z,185
2018-12-21T10:14:57.249Z,185
2018-12-21T10:15:58.687Z,170
2018-12-21T10:17:00.106Z,155
2018-12-21T10:18:01.583Z,125
2018-12-21T10:19:03.509Z,90
2018-12-21T10:20:04.944Z,85
2018-12-21T10:21:06.385Z,85
2018-12-21T10:22:07.808Z,75
2018-12-21T10:23:09.272Z,130
2018-12-21T10:24:18.283Z,170
2018-12-21T10:25:12.083Z,165
2018-12-21T10:26:13.763Z,170
2018-12-21T10:27:15.195Z,180
2018-12-21T10:28:16.618Z,195
2018-12-21T10:29:18.054Z,215
2018-12-21T10:30:19.850Z,245
2018-12-21T10:31:21.312Z,250
2018-12-21T10:32:22.734Z,250
2018-12-21T10:33:24.180Z,240
2018-12-21T10:34:25.626Z,235
2018-12-21T10:35:27.063Z,235
2018-12-21T10:36:28.519Z,255
2018-12-21T10:37:30.021Z,270
2018-12-21T10:38:31.460Z,270
2018-12-21T10:39:32.900Z,250
2018-12-21T10:40:34.287Z,245
2018-12-21T10:41:35.731Z,240
2018-12-21T10:42:37.506Z,245
2018-12-21T10:43:39.026Z,255
2018-12-21T10:44:40.491Z,255
2018-12-21T10:45:42.005Z,250
2018-12-21T10:46:43.379Z,255
2018-12-21T10:47:44.795Z,265
2018-12-21T10:48:46.264Z,260
2018-12-21T10:49:47.928Z,275
2018-12-21T10:50:49.340Z,265
2018-12-21T10:51:50.793Z,205
2018-12-21T10:52:52.320Z,170
2018-12-21T10:53:54.303Z,170
2018-12-21T10:54:55.907Z,200
2018-12-21T10:55:57.781Z,250
2018-12-21T10:56:59.279Z,280
2018-12-21T10:58:00.709Z,310
2018-12-21T10:59:02.263Z,330
2018-12-21T11:00:03.736Z,360
2018-12-21T11:01:05.183Z,360
2018-12-21T11:02:06.620Z,335
2018-12-21T11:03:08.356Z,310
2018-12-21T11:04:09.811Z,265
2018-12-21T11:05:11.309Z,255
2018-12-21T11:06:12.699Z,245
2018-12-21T11:07:14.147Z,235
2018-12-21T11:08:15.586Z,220
2018-12-21T11:09:17.043Z,225
2018-12-21T11:10:18.491Z,220
2018-12-21T11:11:19.906Z,195
2018-12-21T11:12:21.330Z,190
2018-12-21T11:13:22.785Z,195
2018-12-21T11:14:24.216Z,200
2018-12-21T11:15:25.680Z,215
2018-12-21T11:16:27.090Z,220
2018-12-21T11:17:28.552Z,210
2018-12-21T11:18:29.990Z,195
2018-12-21T11:19:31.434Z,195
2018-12-21T11:20:32.860Z,200
2018-12-21T11:21:34.355Z,200
2018-12-21T11:22:35.796Z,185
2018-12-21T11:23:37.263Z,185
2018-12-21T11:24:38.706Z,185
2018-12-21T11:25:40.165Z,200
2018-12-21T11:26:41.602Z,220
2018-12-21T11:27:43.087Z,205
2018-12-21T11:28:44.532Z,205
2018-12-21T11:29:45.983Z,210
2018-12-21T11:30:47.402Z,205
2018-12-21T11:31:48.815Z,190
2018-12-21T11:32:50.222Z,190
2018-12-21T11:33:51.667Z,185
2018-12-21T11:34:54.855Z,165
2018-12-21T11:35:54.472Z,175
2018-12-21T11:36:56.023Z,230
2018-12-21T11:37:57.466Z,245
2018-12-21T11:38:58.886Z,230
2018-12-21T11:40:00.314Z,235
2018-12-21T11:41:01.716Z,235
2018-12-21T11:42:03.218Z,250
2018-12-21T11:43:04.641Z,230
2018-12-21T11:44:06.106Z,225
2018-12-21T11:45:07.621Z,210
2018-12-21T11:46:09.077Z,205
2018-12-21T11:47:10.535Z,190
2018-12-21T11:48:11.963Z,165
2018-12-21T11:49:13.404Z,170
2018-12-21T11:50:14.863Z,160
2018-12-21T11:51:16.332Z,140
2018-12-21T11:52:17.780Z,140
2018-12-21T11:53:19.240Z,145
2018-12-21T11:54:20.683Z,175
2018-12-21T11:55:22.158Z,170
2018-12-21T11:56:23.620Z,170
2018-12-21T11:57:25.068Z,200
2018-12-21T11:58:26.537Z,220
2018-12-21T11:59:27.990Z,225
2018-12-21T12:00:29.440Z,210
2018-12-21T12:01:30.909Z,205
2018-12-21T12:02:32.362Z,210
2018-12-21T12:03:33.800Z,230
2018-12-21T12:04:35.331Z,185
2018-12-21T12:05:36.767Z,190
2018-12-21T12:06:38.217Z,185
2018-12-21T12:07:40.135Z,180
2018-12-21T12:08:41.574Z,190
2018-12-21T12:09:43.032Z,155
2018-12-21T12:10:44.463Z,160
2018-12-21T12:11:45.856Z,130
2018-12-21T12:12:47.340Z,110
2018-12-21T12:13:48.862Z,120
2018-12-21T12:14:50.333Z,115
2018-12-21T12:15:51.795Z,120
2018-12-21T12:16:53.271Z,105
2018-12-21T12:17:54.708Z,115
2018-12-21T12:18:56.186Z,140
2018-12-21T12:19:57.717Z,140
2018-12-21T12:20:59.615Z,145
2018-12-21T12:22:01.078Z,120
2018-12-21T12:23:02.895Z,125
2018-12-21T12:24:04.521Z,95
2018-12-21T12:25:06.419Z,100
2018-12-21T12:26:08.316Z,110
2018-12-21T12:27:10.146Z,105
2018-12-21T12:28:11.639Z,115
2018-12-21T12:29:13.108Z,110
2018-12-21T12:30:14.679Z,100
2018-12-21T12:31:16.142Z,110
2018-12-21T12:32:17.603Z,90
2018-12-21T12:33:19.092Z,100
2018-12-21T12:34:20.607Z,95
2018-12-21T12:35:22.143Z,95
2018-12-21T12:36:24.087Z,95
2018-12-21T12:37:26.138Z,115
2018-12-21T12:38:27.994Z,115
2018-12-21T12:39:29.990Z,120
2018-12-21T12:40:31.988Z,140
2018-12-21T12:41:33.924Z,120
2018-12-21T12:42:36.269Z,125
2018-12-21T12:43:38.526Z,115
2018-12-21T12:44:40.521Z,125
2018-12-21T12:45:42.591Z,95
2018-12-21T12:46:44.185Z,100
2018-12-21T12:47:45.667Z,90
2018-12-21T12:48:47.701Z,85
2018-12-21T12:49:49.359Z,80
2018-12-21T12:50:50.847Z,85
2018-12-21T12:51:52.307Z,75
2018-12-21T12:52:53.775Z,80
2018-12-21T12:53:55.405Z,95
2018-12-21T12:55:02.521Z,80
2018-12-21T12:56:39.416Z,120
2018-12-21T12:57:41.580Z,130
2018-12-21T12:58:43.067Z,105
2018-12-21T12:59:44.776Z,85
2018-12-21T13:00:46.507Z,70
2018-12-21T13:01:48.241Z,50
2018-12-21T13:02:50.024Z,65
2018-12-21T13:03:51.695Z,55
2018-12-21T13:04:53.419Z,55
2018-12-21T13:05:55.111Z,55
2018-12-21T13:06:56.812Z,50
2018-12-21T13:07:58.516Z,55
2018-12-21T13:09:00.297Z,70
2018-12-21T13:10:01.998Z,65
2018-12-21T13:11:03.800Z,80
2018-12-21T13:12:05.543Z,80
2018-12-21T13:13:07.238Z,80
2018-12-21T13:14:09.027Z,85
2018-12-21T13:15:10.744Z,100
2018-12-21T13:16:12.506Z,155
2018-12-21T13:17:14.399Z,160
2018-12-21T13:18:16.071Z,160
2018-12-21T13:19:17.866Z,120
2018-12-21T13:20:19.631Z,125
2018-12-21T13:21:21.378Z,160
2018-12-21T13:22:23.094Z,155
2018-12-21T13:23:24.812Z,145
2018-12-21T13:24:26.604Z,145
2018-12-21T13:25:28.343Z,155
2018-12-21T13:26:30.097Z,205
2018-12-21T13:27:31.827Z,195
2018-12-21T13:28:33.531Z,195
2018-12-21T13:29:35.261Z,165
2018-12-21T13:30:36.980Z,170
2018-12-21T13:31:38.746Z,160
2018-12-21T13:32:40.517Z,170
2018-12-21T13:33:42.269Z,180
2018-12-21T13:34:44.137Z,175
2018-12-21T13:35:45.922Z,165
2018-12-21T13:36:47.724Z,170
2018-12-21T13:37:49.497Z,160
2018-12-21T13:38:51.190Z,150
2018-12-21T13:39:52.953Z,140
2018-12-21T13:40:54.649Z,140
2018-12-21T13:41:56.329Z,140
2018-12-21T13:42:58.104Z,150
2018-12-21T13:43:59.854Z,155
2018-12-21T13:45:01.606Z,140
2018-12-21T13:46:03.414Z,110
2018-12-21T13:47:05.121Z,100
2018-12-21T13:48:06.877Z,110
2018-12-21T13:49:08.669Z,105
2018-12-21T13:50:10.453Z,120
2018-12-21T13:51:12.232Z,115
2018-12-21T13:52:14.003Z,115
2018-12-21T13:53:15.736Z,110
2018-12-21T13:54:17.456Z,95
2018-12-21T13:55:20.504Z,85
2018-12-21T13:56:20.899Z,100
2018-12-21T13:57:22.660Z,115
2018-12-21T13:58:24.426Z,130
2018-12-21T13:59:26.215Z,125
2018-12-21T14:00:27.967Z,130
2018-12-21T14:01:29.765Z,130
2018-12-21T14:02:31.526Z,110
2018-12-21T14:03:33.663Z,85
2018-12-21T14:04:35.394Z,85
2018-12-21T14:05:37.133Z,80
2018-12-21T14:06:38.850Z,65
2018-12-21T14:07:40.583Z,70
2018-12-21T14:08:42.304Z,80
2018-12-21T14:09:44.019Z,80
2018-12-21T14:10:45.788Z,55
2018-12-21T14:11:47.534Z,70
2018-12-21T14:12:49.389Z,60
2018-12-21T14:13:51.010Z,75
2018-12-21T14:14:52.748Z,80
2018-12-21T14:15:54.587Z,85
2018-12-21T14:16:56.686Z,95
2018-12-21T14:17:58.821Z,95
2018-12-21T14:19:00.517Z,95
2018-12-21T14:20:02.237Z,100
2018-12-21T14:21:03.998Z,95
2018-12-21T14:22:05.755Z,90
2018-12-21T14:23:07.506Z,90
2018-12-21T14:24:09.207Z,75
2018-12-21T14:25:10.952Z,60
2018-12-21T14:26:12.911Z,50
2018-12-21T14:27:14.638Z,55
2018-12-21T14:28:16.427Z,45
2018-12-21T14:29:18.343Z,50
2018-12-21T14:30:20.080Z,50
2018-12-21T14:31:21.872Z,55
2018-12-21T14:32:23.630Z,55
2018-12-21T14:33:25.434Z,55
2018-12-21T14:34:27.218Z,55
2018-12-21T14:35:29.103Z,50
2018-12-21T14:36:31.024Z,45
2018-12-21T14:37:33.146Z,50
2018-12-21T14:38:35.139Z,50
2018-12-21T14:39:36.915Z,45
2018-12-21T14:40:38.599Z,45
2018-12-21T14:41:40.391Z,45
2018-12-21T14:42:42.116Z,40
2018-12-21T14:43:43.880Z,45
2018-12-21T14:44:45.845Z,50
2018-12-21T14:45:47.646Z,50
2018-12-21T14:46:49.380Z,45
2018-12-21T14:47:51.121Z,40
2018-12-21T14:48:52.849Z,40
2018-12-21T14:49:54.527Z,35
2018-12-21T14:50:56.246Z,35
2018-12-21T14:51:57.948Z,35
2018-12-21T14:52:59.614Z,30
2018-12-21T14:54:01.374Z,30
2018-12-21T14:55:03.010Z,25
2018-12-21T14:56:04.816Z,25
2018-12-21T14:57:06.516Z,25
2018-12-21T14:58:08.322Z,25
2018-12-21T14:59:10.106Z,25
2018-12-21T15:00:11.771Z,25
2018-12-21T15:01:13.546Z,25